Terminal Aerodrome Forecast
Issued by NWS

Home | Current Version | Previous Version | Text Only | Print | Product List | Glossary On
Versions: 1 2 3 4 5 6 7 8 9 10 11 12
000
FTUS44 KJAN 311700
TAFGTR
TAF
KGTR 311737Z 3118/0118 01006KT P6SM SCT100
     FM312200 04003KT P6SM OVC100
     FM010100 00000KT P6SM OVC250
     FM011100 VRB03KT P6SM BKN100=

USA.gov is the U.S. government's official web portal to all federal, state and local government web resources and services.